sensor_id;sensor_type;location;lat;lon;timestamp;temperature;humidity
28761;DHT22;15917;50.014;8.352;2024-03-23T00:54:36;10.60;99.90
28761;DHT22;15917;50.014;8.352;2024-03-23T00:57:02;10.60;99.90
28761;DHT22;15917;50.014;8.352;2024-03-23T00:59:28;10.60;99.90
28761;DHT22;15917;50.014;8.352;2024-03-23T01:01:54;10.60;99.90
28761;DHT22;15917;50.014;8.352;2024-03-23T01:04:20;10.70;99.90
28761;DHT22;15917;50.014;8.352;2024-03-23T01:06:46;10.70;99.90
28761;DHT22;15917;50.014;8.352;2024-03-23T01:09:12;10.70;99.90
28761;DHT22;15917;50.014;8.352;2024-03-23T01:11:39;10.70;99.90
28761;DHT22;15917;50.014;8.352;2024-03-23T01:14:05;10.70;99.90
28761;DHT22;15917;50.014;8.352;2024-03-23T01:16:31;10.70;99.90
28761;DHT22;15917;50.014;8.352;2024-03-23T01:18:57;10.80;99.90
28761;DHT22;15917;50.014;8.352;2024-03-23T01:21:23;10.80;99.90
28761;DHT22;15917;50.014;8.352;2024-03-23T01:23:48;10.80;99.90
28761;DHT22;15917;50.014;8.352;2024-03-23T01:26:14;10.80;99.90
28761;DHT22;15917;50.014;8.352;2024-03-23T01:28:40;10.90;99.90
28761;DHT22;15917;50.014;8.352;2024-03-23T01:31:06;11.00;99.90
28761;DHT22;15917;50.014;8.352;2024-03-23T01:33:31;11.00;99.90
28761;DHT22;15917;50.014;8.352;2024-03-23T01:35:57;11.00;99.90
28761;DHT22;15917;50.014;8.352;2024-03-23T01:38:22;11.00;99.90
28761;DHT22;15917;50.014;8.352;2024-03-23T01:40:48;11.00;99.90
28761;DHT22;15917;50.014;8.352;2024-03-23T01:43:14;11.00;99.90
28761;DHT22;15917;50.014;8.352;2024-03-23T01:45:39;11.00;99.90
28761;DHT22;15917;50.014;8.352;2024-03-23T01:48:05;11.00;99.90
28761;DHT22;15917;50.014;8.352;2024-03-23T01:50:31;11.00;99.90
28761;DHT22;15917;50.014;8.352;2024-03-23T01:53:01;11.00;99.90
28761;DHT22;15917;50.014;8.352;2024-03-23T01:55:27;11.00;99.90
28761;DHT22;15917;50.014;8.352;2024-03-23T01:57:56;10.90;99.90
28761;DHT22;15917;50.014;8.352;2024-03-23T02:00:22;10.80;99.90
28761;DHT22;15917;50.014;8.352;2024-03-23T02:02:48;10.80;99.90
28761;DHT22;15917;50.014;8.352;2024-03-23T02:05:14;10.80;99.90
28761;DHT22;15917;50.014;8.352;2024-03-23T02:07:41;10.70;99.90
28761;DHT22;15917;50.014;8.352;2024-03-23T02:10:09;10.70;99.90
28761;DHT22;15917;50.014;8.352;2024-03-23T02:12:41;10.70;99.90
28761;DHT22;15917;50.014;8.352;2024-03-23T02:15:06;10.70;99.90
28761;DHT22;15917;50.014;8.352;2024-03-23T02:17:34;10.70;99.90
28761;DHT22;15917;50.014;8.352;2024-03-23T02:20:01;10.60;99.90
28761;DHT22;15917;50.014;8.352;2024-03-23T02:22:37;10.60;99.90
28761;DHT22;15917;50.014;8.352;2024-03-23T02:25:04;10.60;99.90
28761;DHT22;15917;50.014;8.352;2024-03-23T02:27:29;10.60;99.90
28761;DHT22;15917;50.014;8.352;2024-03-23T02:29:55;10.60;99.90
28761;DHT22;15917;50.014;8.352;2024-03-23T02:32:21;10.60;99.90
28761;DHT22;15917;50.014;8.352;2024-03-23T02:34:46;10.60;99.90
28761;DHT22;15917;50.014;8.352;2024-03-23T02:37:12;10.60;99.90
28761;DHT22;15917;50.014;8.352;2024-03-23T02:39:37;10.60;99.90
28761;DHT22;15917;50.014;8.352;2024-03-23T02:42:03;10.60;99.90
28761;DHT22;15917;50.014;8.352;2024-03-23T02:44:29;10.60;99.90
28761;DHT22;15917;50.014;8.352;2024-03-23T02:46:54;10.60;99.90
28761;DHT22;15917;50.014;8.352;2024-03-23T02:49:20;10.50;99.90
28761;DHT22;15917;50.014;8.352;2024-03-23T02:51:47;10.50;99.90
28761;DHT22;15917;50.014;8.352;2024-03-23T02:54:14;10.50;99.90
28761;DHT22;15917;50.014;8.352;2024-03-23T02:56:39;10.50;99.90
28761;DHT22;15917;50.014;8.352;2024-03-23T02:59:05;10.50;99.90
28761;DHT22;15917;50.014;8.352;2024-03-23T03:01:30;10.50;99.90
28761;DHT22;15917;50.014;8.352;2024-03-23T03:03:56;10.50;99.90
28761;DHT22;15917;50.014;8.352;2024-03-23T03:06:25;10.50;99.90
28761;DHT22;15917;50.014;8.352;2024-03-23T03:08:51;10.50;99.90
28761;DHT22;15917;50.014;8.352;2024-03-23T03:11:16;10.50;99.90
28761;DHT22;15917;50.014;8.352;2024-03-23T03:13:42;10.50;99.90
28761;DHT22;15917;50.014;8.352;2024-03-23T03:16:11;10.50;99.90
28761;DHT22;15917;50.014;8.352;2024-03-23T03:18:37;10.50;99.90
28761;DHT22;15917;50.014;8.352;2024-03-23T03:21:03;10.50;99.90
28761;DHT22;15917;50.014;8.352;2024-03-23T03:23:30;10.50;99.90
28761;DHT22;15917;50.014;8.352;2024-03-23T03:25:56;10.40;99.90
28761;DHT22;15917;50.014;8.352;2024-03-23T03:28:22;10.40;99.90
28761;DHT22;15917;50.014;8.352;2024-03-23T03:30:48;10.40;99.90
28761;DHT22;15917;50.014;8.352;2024-03-23T03:33:13;10.40;99.90
28761;DHT22;15917;50.014;8.352;2024-03-23T03:35:39;10.30;99.90
28761;DHT22;15917;50.014;8.352;2024-03-23T03:38:04;10.30;99.90
28761;DHT22;15917;50.014;8.352;2024-03-23T03:40:30;10.30;99.90
28761;DHT22;15917;50.014;8.352;2024-03-23T03:42:56;10.30;99.90
28761;DHT22;15917;50.014;8.352;2024-03-23T03:45:21;10.30;99.90
28761;DHT22;15917;50.014;8.352;2024-03-23T03:47:47;10.20;99.90
28761;DHT22;15917;50.014;8.352;2024-03-23T03:50:12;10.20;99.90
28761;DHT22;15917;50.014;8.352;2024-03-23T03:52:38;10.20;99.90
28761;DHT22;15917;50.014;8.352;2024-03-23T03:55:12;10.20;99.90
28761;DHT22;15917;50.014;8.352;2024-03-23T03:57:38;10.20;99.90
28761;DHT22;15917;50.014;8.352;2024-03-23T04:00:04;10.10;99.90
28761;DHT22;15917;50.014;8.352;2024-03-23T04:02:30;10.00;99.90
28761;DHT22;15917;50.014;8.352;2024-03-23T04:04:56;10.00;99.90
28761;DHT22;15917;50.014;8.352;2024-03-23T04:07:21;9.90;99.90
28761;DHT22;15917;50.014;8.352;2024-03-23T04:09:48;9.90;99.90
28761;DHT22;15917;50.014;8.352;2024-03-23T04:12:15;9.80;99.90
28761;DHT22;15917;50.014;8.352;2024-03-23T04:14:40;9.70;99.90
28761;DHT22;15917;50.014;8.352;2024-03-23T04:17:06;9.50;99.90
28761;DHT22;15917;50.014;8.352;2024-03-23T04:19:32;9.40;99.90
28761;DHT22;15917;50.014;8.352;2024-03-23T04:21:57;9.30;99.90
28761;DHT22;15917;50.014;8.352;2024-03-23T04:24:23;9.30;99.90
28761;DHT22;15917;50.014;8.352;2024-03-23T04:26:51;9.20;99.90
28761;DHT22;15917;50.014;8.352;2024-03-23T04:29:17;9.10;99.90
28761;DHT22;15917;50.014;8.352;2024-03-23T04:31:42;9.10;99.90
28761;DHT22;15917;50.014;8.352;2024-03-23T04:34:08;9.10;99.90
28761;DHT22;15917;50.014;8.352;2024-03-23T04:36:33;9.10;99.90
28761;DHT22;15917;50.014;8.352;2024-03-23T04:38:59;9.10;99.90
28761;DHT22;15917;50.014;8.352;2024-03-23T04:41:25;9.10;99.90
28761;DHT22;15917;50.014;8.352;2024-03-23T04:43:51;9.10;99.90
28761;DHT22;15917;50.014;8.352;2024-03-23T04:46:20;9.00;99.90
28761;DHT22;15917;50.014;8.352;2024-03-23T04:48:46;9.00;99.90
28761;DHT22;15917;50.014;8.352;2024-03-23T04:51:23;9.00;99.90
28761;DHT22;15917;50.014;8.352;2024-03-23T04:53:49;8.90;99.90
28761;DHT22;15917;50.014;8.352;2024-03-23T04:56:16;8.90;99.90
28761;DHT22;15917;50.014;8.352;2024-03-23T04:58:42;8.90;99.90
28761;DHT22;15917;50.014;8.352;2024-03-23T05:01:08;8.90;99.90
28761;DHT22;15917;50.014;8.352;2024-03-23T05:03:37;8.90;99.90
28761;DHT22;15917;50.014;8.352;2024-03-23T05:06:02;8.90;99.90
28761;DHT22;15917;50.014;8.352;2024-03-23T05:08:28;8.80;99.90
28761;DHT22;15917;50.014;8.352;2024-03-23T05:10:54;8.80;99.90
28761;DHT22;15917;50.014;8.352;2024-03-23T05:13:19;8.80;99.90
28761;DHT22;15917;50.014;8.352;2024-03-23T05:15:53;8.70;99.90
28761;DHT22;15917;50.014;8.352;2024-03-23T05:18:19;8.80;99.90
28761;DHT22;15917;50.014;8.352;2024-03-23T05:20:45;8.80;99.90
28761;DHT22;15917;50.014;8.352;2024-03-23T05:23:11;8.70;99.90
28761;DHT22;15917;50.014;8.352;2024-03-23T05:25:36;8.80;99.90
28761;DHT22;15917;50.014;8.352;2024-03-23T05:28:02;8.70;99.90
28761;DHT22;15917;50.014;8.352;2024-03-23T05:30:27;8.70;99.90
28761;DHT22;15917;50.014;8.352;2024-03-23T05:32:54;8.70;99.90
28761;DHT22;15917;50.014;8.352;2024-03-23T05:35:19;8.70;99.90
28761;DHT22;15917;50.014;8.352;2024-03-23T05:37:45;8.70;99.90
28761;DHT22;15917;50.014;8.352;2024-03-23T05:40:11;8.70;99.90
28761;DHT22;15917;50.014;8.352;2024-03-23T05:42:38;8.70;99.90
28761;DHT22;15917;50.014;8.352;2024-03-23T05:45:04;8.60;99.90
28761;DHT22;15917;50.014;8.352;2024-03-23T05:47:32;8.50;99.90
28761;DHT22;15917;50.014;8.352;2024-03-23T05:49:57;8.50;99.90
28761;DHT22;15917;50.014;8.352;2024-03-23T05:52:23;8.50;99.90
28761;DHT22;15917;50.014;8.352;2024-03-23T05:54:51;8.40;99.90
28761;DHT22;15917;50.014;8.352;2024-03-23T05:57:16;8.40;99.90
28761;DHT22;15917;50.014;8.352;2024-03-23T05:59:42;8.30;99.90
28761;DHT22;15917;50.014;8.352;2024-03-23T06:02:08;8.30;99.90
28761;DHT22;15917;50.014;8.352;2024-03-23T06:04:36;8.30;99.90
28761;DHT22;15917;50.014;8.352;2024-03-23T06:07:01;8.20;99.90
28761;DHT22;15917;50.014;8.352;2024-03-23T06:09:27;8.20;99.90
28761;DHT22;15917;50.014;8.352;2024-03-23T06:11:53;8.20;99.90
28761;DHT22;15917;50.014;8.352;2024-03-23T06:14:18;8.20;99.90
28761;DHT22;15917;50.014;8.352;2024-03-23T06:16:44;8.20;99.90
28761;DHT22;15917;50.014;8.352;2024-03-23T06:19:09;8.20;99.90
28761;DHT22;15917;50.014;8.352;2024-03-23T06:21:35;8.20;99.90
28761;DHT22;15917;50.014;8.352;2024-03-23T06:24:01;8.30;99.90
28761;DHT22;15917;50.014;8.352;2024-03-23T06:26:26;8.20;99.90
28761;DHT22;15917;50.014;8.352;2024-03-23T06:28:52;8.30;99.90
28761;DHT22;15917;50.014;8.352;2024-03-23T06:31:18;8.30;99.90
28761;DHT22;15917;50.014;8.352;2024-03-23T06:33:43;8.20;99.90
28761;DHT22;15917;50.014;8.352;2024-03-23T06:36:10;8.10;99.90
28761;DHT22;15917;50.014;8.352;2024-03-23T06:38:37;8.00;99.90
28761;DHT22;15917;50.014;8.352;2024-03-23T06:41:06;8.00;99.90
28761;DHT22;15917;50.014;8.352;2024-03-23T06:43:32;8.00;99.90
28761;DHT22;15917;50.014;8.352;2024-03-23T06:45:58;8.00;99.90
28761;DHT22;15917;50.014;8.352;2024-03-23T06:48:24;8.00;99.90
28761;DHT22;15917;50.014;8.352;2024-03-23T06:50:49;8.00;99.90
28761;DHT22;15917;50.014;8.352;2024-03-23T06:53:20;8.00;99.90
28761;DHT22;15917;50.014;8.352;2024-03-23T06:55:51;8.00;99.90
28761;DHT22;15917;50.014;8.352;2024-03-23T06:58:18;7.90;99.90
28761;DHT22;15917;50.014;8.352;2024-03-23T07:00:44;8.00;99.90
28761;DHT22;15917;50.014;8.352;2024-03-23T07:03:09;8.00;99.90
28761;DHT22;15917;50.014;8.352;2024-03-23T07:05:35;8.10;99.90
28761;DHT22;15917;50.014;8.352;2024-03-23T07:08:00;8.10;99.90
28761;DHT22;15917;50.014;8.352;2024-03-23T07:10:26;8.10;99.90
28761;DHT22;15917;50.014;8.352;2024-03-23T07:12:54;8.10;99.90
28761;DHT22;15917;50.014;8.352;2024-03-23T07:15:20;8.20;99.90
28761;DHT22;15917;50.014;8.352;2024-03-23T07:17:49;8.20;99.90
28761;DHT22;15917;50.014;8.352;2024-03-23T07:20:14;8.30;99.90
28761;DHT22;15917;50.014;8.352;2024-03-23T07:22:40;8.40;99.90
28761;DHT22;15917;50.014;8.352;2024-03-23T07:25:06;8.50;99.90
28761;DHT22;15917;50.014;8.352;2024-03-23T07:27:32;8.50;99.90
28761;DHT22;15917;50.014;8.352;2024-03-23T07:29:58;8.40;99.90
28761;DHT22;15917;50.014;8.352;2024-03-23T07:32:23;8.40;99.90
28761;DHT22;15917;50.014;8.352;2024-03-23T07:34:49;8.40;99.90
28761;DHT22;15917;50.014;8.352;2024-03-23T07:37:14;9.70;99.90
28761;DHT22;15917;50.014;8.352;2024-03-23T07:39:41;10.00;99.90
28761;DHT22;15917;50.014;8.352;2024-03-23T07:42:06;9.80;99.90
28761;DHT22;15917;50.014;8.352;2024-03-23T07:44:32;9.50;99.90
28761;DHT22;15917;50.014;8.352;2024-03-23T07:47:00;9.20;99.90
28761;DHT22;15917;50.014;8.352;2024-03-23T07:49:26;9.00;99.90
28761;DHT22;15917;50.014;8.352;2024-03-23T07:51:52;8.70;99.90
28761;DHT22;15917;50.014;8.352;2024-03-23T07:54:17;8.70;99.90
28761;DHT22;15917;50.014;8.352;2024-03-23T07:56:43;8.60;99.90
28761;DHT22;15917;50.014;8.352;2024-03-23T07:59:09;8.60;99.90
28761;DHT22;15917;50.014;8.352;2024-03-23T08:01:35;8.70;99.90
28761;DHT22;15917;50.014;8.352;2024-03-23T08:04:00;8.80;99.90
28761;DHT22;15917;50.014;8.352;2024-03-23T08:06:26;9.00;99.90
28761;DHT22;15917;50.014;8.352;2024-03-23T08:08:54;9.00;99.90
28761;DHT22;15917;50.014;8.352;2024-03-23T08:11:30;9.50;99.90
28761;DHT22;15917;50.014;8.352;2024-03-23T08:13:56;9.70;99.90
28761;DHT22;15917;50.014;8.352;2024-03-23T08:16:23;9.70;99.90
28761;DHT22;15917;50.014;8.352;2024-03-23T08:18:51;9.70;99.90
28761;DHT22;15917;50.014;8.352;2024-03-23T08:21:16;9.70;99.90
28761;DHT22;15917;50.014;8.352;2024-03-23T08:23:42;9.60;99.90
28761;DHT22;15917;50.014;8.352;2024-03-23T08:26:10;9.50;99.90
28761;DHT22;15917;50.014;8.352;2024-03-23T08:28:36;9.70;99.90
28761;DHT22;15917;50.014;8.352;2024-03-23T08:31:13;9.70;99.90
28761;DHT22;15917;50.014;8.352;2024-03-23T08:33:40;9.90;99.90
28761;DHT22;15917;50.014;8.352;2024-03-23T08:36:08;10.20;99.90
28761;DHT22;15917;50.014;8.352;2024-03-23T08:38:35;10.30;99.90
28761;DHT22;15917;50.014;8.352;2024-03-23T08:41:08;10.50;99.90
28761;DHT22;15917;50.014;8.352;2024-03-23T08:43:41;10.30;99.90
28761;DHT22;15917;50.014;8.352;2024-03-23T08:46:11;10.30;99.90
28761;DHT22;15917;50.014;8.352;2024-03-23T08:48:45;10.50;99.90
28761;DHT22;15917;50.014;8.352;2024-03-23T08:51:14;10.60;99.90
28761;DHT22;15917;50.014;8.352;2024-03-23T08:53:40;10.60;99.90
28761;DHT22;15917;50.014;8.352;2024-03-23T08:56:07;10.80;99.90
28761;DHT22;15917;50.014;8.352;2024-03-23T08:58:34;11.00;99.90
28761;DHT22;15917;50.014;8.352;2024-03-23T09:01:10;11.00;99.90
28761;DHT22;15917;50.014;8.352;2024-03-23T09:03:36;10.90;99.90
28761;DHT22;15917;50.014;8.352;2024-03-23T09:06:13;11.00;99.90
28761;DHT22;15917;50.014;8.352;2024-03-23T09:08:39;11.10;99.90
28761;DHT22;15917;50.014;8.352;2024-03-23T09:11:10;11.10;99.90
28761;DHT22;15917;50.014;8.352;2024-03-23T09:13:37;11.50;99.90
28761;DHT22;15917;50.014;8.352;2024-03-23T09:16:03;11.60;99.90
28761;DHT22;15917;50.014;8.352;2024-03-23T09:18:32;11.60;99.90
28761;DHT22;15917;50.014;8.352;2024-03-23T09:20:57;11.60;99.90
28761;DHT22;15917;50.014;8.352;2024-03-23T09:23:23;11.60;99.90
28761;DHT22;15917;50.014;8.352;2024-03-23T09:25:49;11.70;99.90
28761;DHT22;15917;50.014;8.352;2024-03-23T09:28:14;11.80;99.90
28761;DHT22;15917;50.014;8.352;2024-03-23T09:30:40;12.00;99.90
28761;DHT22;15917;50.014;8.352;2024-03-23T09:33:12;12.30;99.90
28761;DHT22;15917;50.014;8.352;2024-03-23T09:35:43;12.30;99.90
28761;DHT22;15917;50.014;8.352;2024-03-23T09:38:12;12.30;99.90
28761;DHT22;15917;50.014;8.352;2024-03-23T09:40:42;12.10;99.90
28761;DHT22;15917;50.014;8.352;2024-03-23T09:43:08;12.00;99.90
28761;DHT22;15917;50.014;8.352;2024-03-23T09:45:38;11.70;99.90
28761;DHT22;15917;50.014;8.352;2024-03-23T09:48:04;11.40;99.90
28761;DHT22;15917;50.014;8.352;2024-03-23T09:50:30;11.20;99.90
28761;DHT22;15917;50.014;8.352;2024-03-23T09:52:56;11.10;99.90
28761;DHT22;15917;50.014;8.352;2024-03-23T09:55:21;11.10;99.90
28761;DHT22;15917;50.014;8.352;2024-03-23T09:57:47;11.00;99.90
28761;DHT22;15917;50.014;8.352;2024-03-23T10:00:13;10.80;99.90
28761;DHT22;15917;50.014;8.352;2024-03-23T10:02:39;10.80;99.90
28761;DHT22;15917;50.014;8.352;2024-03-23T10:05:06;10.80;99.90
28761;DHT22;15917;50.014;8.352;2024-03-23T10:07:45;10.80;99.90
28761;DHT22;15917;50.014;8.352;2024-03-23T10:10:11;10.80;99.90
28761;DHT22;15917;50.014;8.352;2024-03-23T10:12:44;10.80;99.90
28761;DHT22;15917;50.014;8.352;2024-03-23T10:15:22;10.80;99.90
28761;DHT22;15917;50.014;8.352;2024-03-23T10:17:48;10.70;99.90
28761;DHT22;15917;50.014;8.352;2024-03-23T10:20:22;10.70;99.90
28761;DHT22;15917;50.014;8.352;2024-03-23T10:22:48;10.70;99.90
28761;DHT22;15917;50.014;8.352;2024-03-23T10:25:15;10.80;99.90
28761;DHT22;15917;50.014;8.352;2024-03-23T10:27:40;10.70;99.90
28761;DHT22;15917;50.014;8.352;2024-03-23T10:30:14;10.70;99.90
28761;DHT22;15917;50.014;8.352;2024-03-23T10:32:42;10.50;99.90
28761;DHT22;15917;50.014;8.352;2024-03-23T10:35:16;9.90;99.90
28761;DHT22;15917;50.014;8.352;2024-03-23T10:37:45;9.30;99.90
28761;DHT22;15917;50.014;8.352;2024-03-23T10:40:13;8.90;99.90
28761;DHT22;15917;50.014;8.352;2024-03-23T10:42:39;8.50;99.90
28761;DHT22;15917;50.014;8.352;2024-03-23T10:45:05;8.20;99.90
28761;DHT22;15917;50.014;8.352;2024-03-23T10:47:35;8.20;99.90
28761;DHT22;15917;50.014;8.352;2024-03-23T10:50:03;8.20;99.90
28761;DHT22;15917;50.014;8.352;2024-03-23T10:52:28;8.20;99.90
28761;DHT22;15917;50.014;8.352;2024-03-23T10:54:55;8.10;99.90
28761;DHT22;15917;50.014;8.352;2024-03-23T10:57:25;8.10;99.90
28761;DHT22;15917;50.014;8.352;2024-03-23T10:59:52;8.00;99.90
28761;DHT22;15917;50.014;8.352;2024-03-23T11:02:22;8.00;99.90
28761;DHT22;15917;50.014;8.352;2024-03-23T11:04:48;8.10;99.90
28761;DHT22;15917;50.014;8.352;2024-03-23T11:07:30;8.10;99.90
28761;DHT22;15917;50.014;8.352;2024-03-23T11:09:57;8.10;99.90
28761;DHT22;15917;50.014;8.352;2024-03-23T11:14:51;8.00;99.90
28761;DHT22;15917;50.014;8.352;2024-03-23T11:17:27;8.00;99.90
28761;DHT22;15917;50.014;8.352;2024-03-23T11:20:02;7.90;99.90
28761;DHT22;15917;50.014;8.352;2024-03-23T11:22:42;7.90;99.90
28761;DHT22;15917;50.014;8.352;2024-03-23T11:25:19;7.90;99.90
28761;DHT22;15917;50.014;8.352;2024-03-23T11:27:56;8.00;99.90
28761;DHT22;15917;50.014;8.352;2024-03-23T11:30:27;8.10;99.90
28761;DHT22;15917;50.014;8.352;2024-03-23T11:32:57;8.50;99.90
28761;DHT22;15917;50.014;8.352;2024-03-23T11:38:07;9.80;99.90
28761;DHT22;15917;50.014;8.352;2024-03-23T11:40:33;10.90;99.90
28761;DHT22;15917;50.014;8.352;2024-03-23T11:43:01;11.60;99.90
28761;DHT22;15917;50.014;8.352;2024-03-23T11:45:27;12.10;99.90
28761;DHT22;15917;50.014;8.352;2024-03-23T11:48:05;12.80;99.90
28761;DHT22;15917;50.014;8.352;2024-03-23T11:50:31;14.00;99.90
28761;DHT22;15917;50.014;8.352;2024-03-23T11:53:26;14.60;99.90
28761;DHT22;15917;50.014;8.352;2024-03-23T11:55:55;14.30;99.90
28761;DHT22;15917;50.014;8.352;2024-03-23T11:58:22;14.30;99.90
28761;DHT22;15917;50.014;8.352;2024-03-23T12:01:02;14.30;99.90
28761;DHT22;15917;50.014;8.352;2024-03-23T12:03:29;14.60;99.90
28761;DHT22;15917;50.014;8.352;2024-03-23T12:05:58;14.50;99.90
28761;DHT22;15917;50.014;8.352;2024-03-23T12:08:36;14.40;99.90
28761;DHT22;15917;50.014;8.352;2024-03-23T12:13:32;14.70;99.90
28761;DHT22;15917;50.014;8.352;2024-03-23T12:16:14;15.00;99.90
28761;DHT22;15917;50.014;8.352;2024-03-23T12:18:44;15.10;99.90
28761;DHT22;15917;50.014;8.352;2024-03-23T12:21:10;15.00;99.90
28761;DHT22;15917;50.014;8.352;2024-03-23T12:23:38;14.80;99.90
28761;DHT22;15917;50.014;8.352;2024-03-23T12:26:04;14.60;99.90
28761;DHT22;15917;50.014;8.352;2024-03-23T12:28:29;14.40;99.90
28761;DHT22;15917;50.014;8.352;2024-03-23T12:30:55;14.20;99.90
28761;DHT22;15917;50.014;8.352;2024-03-23T12:33:21;14.10;99.90
28761;DHT22;15917;50.014;8.352;2024-03-23T12:35:48;14.30;99.90
28761;DHT22;15917;50.014;8.352;2024-03-23T12:38:13;14.70;99.90
28761;DHT22;15917;50.014;8.352;2024-03-23T12:40:39;15.00;99.90
28761;DHT22;15917;50.014;8.352;2024-03-23T12:43:04;15.00;99.90
28761;DHT22;15917;50.014;8.352;2024-03-23T12:45:30;14.70;99.90
28761;DHT22;15917;50.014;8.352;2024-03-23T12:47:56;14.20;99.90
28761;DHT22;15917;50.014;8.352;2024-03-23T12:50:21;13.80;99.90
28761;DHT22;15917;50.014;8.352;2024-03-23T12:52:47;13.30;99.90
28761;DHT22;15917;50.014;8.352;2024-03-23T12:55:13;12.50;99.90
28761;DHT22;15917;50.014;8.352;2024-03-23T12:57:39;11.50;99.90
28761;DHT22;15917;50.014;8.352;2024-03-23T13:00:06;10.50;99.90
28761;DHT22;15917;50.014;8.352;2024-03-23T13:02:35;9.40;99.90
28761;DHT22;15917;50.014;8.352;2024-03-23T13:05:00;8.80;99.90
28761;DHT22;15917;50.014;8.352;2024-03-23T13:07:26;8.40;99.90
28761;DHT22;15917;50.014;8.352;2024-03-23T13:09:52;8.30;99.90
28761;DHT22;15917;50.014;8.352;2024-03-23T13:12:21;8.30;99.90
28761;DHT22;15917;50.014;8.352;2024-03-23T13:14:47;8.40;99.90
28761;DHT22;15917;50.014;8.352;2024-03-23T13:17:13;8.90;99.90
28761;DHT22;15917;50.014;8.352;2024-03-23T13:19:38;9.50;99.90
28761;DHT22;15917;50.014;8.352;2024-03-23T13:22:05;10.20;99.90
28761;DHT22;15917;50.014;8.352;2024-03-23T13:24:30;10.60;99.90
28761;DHT22;15917;50.014;8.352;2024-03-23T13:26:57;11.00;99.90
28761;DHT22;15917;50.014;8.352;2024-03-23T13:29:23;11.50;99.90
28761;DHT22;15917;50.014;8.352;2024-03-23T13:31:50;12.80;99.90
28761;DHT22;15917;50.014;8.352;2024-03-23T13:34:16;13.30;99.90
28761;DHT22;15917;50.014;8.352;2024-03-23T13:36:43;13.30;99.90
28761;DHT22;15917;50.014;8.352;2024-03-23T13:39:09;13.20;99.90
28761;DHT22;15917;50.014;8.352;2024-03-23T13:41:38;12.70;99.90
28761;DHT22;15917;50.014;8.352;2024-03-23T13:44:05;12.60;99.90
28761;DHT22;15917;50.014;8.352;2024-03-23T13:46:31;12.10;99.90
28761;DHT22;15917;50.014;8.352;2024-03-23T13:48:57;11.90;99.90
28761;DHT22;15917;50.014;8.352;2024-03-23T13:51:24;12.10;99.90
28761;DHT22;15917;50.014;8.352;2024-03-23T13:53:56;12.20;99.90
28761;DHT22;15917;50.014;8.352;2024-03-23T13:56:30;12.20;99.90
28761;DHT22;15917;50.014;8.352;2024-03-23T13:58:56;12.60;99.90
28761;DHT22;15917;50.014;8.352;2024-03-23T14:01:22;13.20;99.90
28761;DHT22;15917;50.014;8.352;2024-03-23T14:03:48;13.50;99.90
28761;DHT22;15917;50.014;8.352;2024-03-23T14:06:14;13.30;99.90
28761;DHT22;15917;50.014;8.352;2024-03-23T14:08:39;13.40;99.90
28761;DHT22;15917;50.014;8.352;2024-03-23T14:11:05;13.70;99.90
28761;DHT22;15917;50.014;8.352;2024-03-23T14:13:31;13.60;99.90
28761;DHT22;15917;50.014;8.352;2024-03-23T14:15:58;13.30;99.90
28761;DHT22;15917;50.014;8.352;2024-03-23T14:18:24;12.90;99.90
28761;DHT22;15917;50.014;8.352;2024-03-23T14:20:50;12.50;99.90
28761;DHT22;15917;50.014;8.352;2024-03-23T14:23:16;12.20;99.90
28761;DHT22;15917;50.014;8.352;2024-03-23T14:25:42;12.30;99.90
28761;DHT22;15917;50.014;8.352;2024-03-23T14:28:08;12.30;99.90
28761;DHT22;15917;50.014;8.352;2024-03-23T14:30:42;12.70;99.90
28761;DHT22;15917;50.014;8.352;2024-03-23T14:33:09;13.20;99.90
28761;DHT22;15917;50.014;8.352;2024-03-23T14:35:35;13.80;99.90
28761;DHT22;15917;50.014;8.352;2024-03-23T14:38:01;14.10;99.90
28761;DHT22;15917;50.014;8.352;2024-03-23T14:40:26;14.20;99.90
28761;DHT22;15917;50.014;8.352;2024-03-23T14:42:56;14.10;99.90
28761;DHT22;15917;50.014;8.352;2024-03-23T14:45:21;14.20;99.90
28761;DHT22;15917;50.014;8.352;2024-03-23T14:47:53;14.30;99.90
28761;DHT22;15917;50.014;8.352;2024-03-23T14:50:19;14.20;99.90
28761;DHT22;15917;50.014;8.352;2024-03-23T14:52:45;14.30;99.90
28761;DHT22;15917;50.014;8.352;2024-03-23T14:55:12;14.40;99.90
28761;DHT22;15917;50.014;8.352;2024-03-23T14:57:38;14.40;99.90
28761;DHT22;15917;50.014;8.352;2024-03-23T15:00:06;14.50;99.90
28761;DHT22;15917;50.014;8.352;2024-03-23T15:02:33;14.10;99.90
28761;DHT22;15917;50.014;8.352;2024-03-23T15:04:59;13.80;99.90
28761;DHT22;15917;50.014;8.352;2024-03-23T15:07:24;13.20;99.90
28761;DHT22;15917;50.014;8.352;2024-03-23T15:09:50;12.80;99.90
28761;DHT22;15917;50.014;8.352;2024-03-23T15:12:16;12.40;99.90
28761;DHT22;15917;50.014;8.352;2024-03-23T15:14:41;12.10;99.90
28761;DHT22;15917;50.014;8.352;2024-03-23T15:17:07;11.90;99.90
28761;DHT22;15917;50.014;8.352;2024-03-23T15:19:34;11.70;99.90
28761;DHT22;15917;50.014;8.352;2024-03-23T15:22:00;11.50;99.90
28761;DHT22;15917;50.014;8.352;2024-03-23T15:24:25;11.40;99.90
28761;DHT22;15917;50.014;8.352;2024-03-23T15:26:51;11.30;99.90
28761;DHT22;15917;50.014;8.352;2024-03-23T15:29:17;11.10;99.90
28761;DHT22;15917;50.014;8.352;2024-03-23T15:31:43;11.00;99.90
28761;DHT22;15917;50.014;8.352;2024-03-23T15:34:10;10.90;99.90
28761;DHT22;15917;50.014;8.352;2024-03-23T15:36:39;10.50;99.90
28761;DHT22;15917;50.014;8.352;2024-03-23T15:39:05;10.30;99.90
28761;DHT22;15917;50.014;8.352;2024-03-23T15:41:31;10.10;99.90
28761;DHT22;15917;50.014;8.352;2024-03-23T15:43:59;9.90;99.90
28761;DHT22;15917;50.014;8.352;2024-03-23T15:46:25;9.90;99.90
28761;DHT22;15917;50.014;8.352;2024-03-23T15:48:50;9.80;99.90
28761;DHT22;15917;50.014;8.352;2024-03-23T15:51:16;9.70;99.90
28761;DHT22;15917;50.014;8.352;2024-03-23T15:53:43;9.80;99.90
28761;DHT22;15917;50.014;8.352;2024-03-23T15:56:09;9.80;99.90
28761;DHT22;15917;50.014;8.352;2024-03-23T15:58:35;9.90;99.90
28761;DHT22;15917;50.014;8.352;2024-03-23T16:01:08;9.80;99.90
28761;DHT22;15917;50.014;8.352;2024-03-23T16:03:37;9.80;99.90
28761;DHT22;15917;50.014;8.352;2024-03-23T16:06:07;9.70;99.90
28761;DHT22;15917;50.014;8.352;2024-03-23T16:08:33;9.60;99.90
28761;DHT22;15917;50.014;8.352;2024-03-23T16:11:04;9.60;99.90
28761;DHT22;15917;50.014;8.352;2024-03-23T16:13:30;9.60;99.90
28761;DHT22;15917;50.014;8.352;2024-03-23T16:16:03;9.50;99.90
28761;DHT22;15917;50.014;8.352;2024-03-23T16:18:30;9.60;99.90
28761;DHT22;15917;50.014;8.352;2024-03-23T16:20:57;9.60;99.90
28761;DHT22;15917;50.014;8.352;2024-03-23T16:23:23;9.60;99.90
28761;DHT22;15917;50.014;8.352;2024-03-23T16:25:50;9.80;99.90
28761;DHT22;15917;50.014;8.352;2024-03-23T16:28:29;9.70;99.90
28761;DHT22;15917;50.014;8.352;2024-03-23T16:33:26;9.70;99.90
28761;DHT22;15917;50.014;8.352;2024-03-23T16:36:08;9.70;99.90
28761;DHT22;15917;50.014;8.352;2024-03-23T16:38:35;9.60;99.90
28761;DHT22;15917;50.014;8.352;2024-03-23T16:41:03;9.70;99.90